Time;durP1;ratioP1;P1;durP2;ratioP2;P2;SDS_P1;SDS_P2;PMS_P1;PMS_P2;Temp;Humidity;BMP_temperature;BMP_pressure;BME280_temperature;BME280_humidity;BME280_pressure;Samples;Min_cycle;Max_cycle;Signal;HPM_P1;HPM_P2
2023/05/25 00:01:37;;;;;;;2.50;0.90;;;;;;;14.23;100.00;99804.75;105071;1257;73661;-48
2023/05/25 00:04:05;;;;;;;1.00;0.90;;;;;;;14.20;100.00;99801.86;105081;1265;66255;-49
2023/05/25 00:06:36;;;;;;;2.10;1.10;;;;;;;14.18;100.00;99799.67;104975;1264;71839;-48
2023/05/25 00:09:03;;;;;;;1.20;1.00;;;;;;;14.16;100.00;99806.61;104989;1259;61491;-47
2023/05/25 00:11:30;;;;;;;2.20;0.90;;;;;;;14.15;100.00;99803.09;105010;1263;59537;-47
2023/05/25 00:13:58;;;;;;;2.30;1.10;;;;;;;14.09;100.00;99802.72;105116;1257;71487;-47
2023/05/25 00:16:25;;;;;;;2.10;1.00;;;;;;;14.05;100.00;99804.59;104967;1263;67503;-48
2023/05/25 00:18:56;;;;;;;2.00;0.90;;;;;;;14.02;100.00;99806.98;105016;1264;71684;-48
2023/05/25 00:21:24;;;;;;;1.70;0.80;;;;;;;14.01;100.00;99805.93;108714;1259;60291;-46
2023/05/25 00:23:52;;;;;;;1.00;0.80;;;;;;;14.01;100.00;99809.32;106714;1257;60185;-48
2023/05/25 00:26:19;;;;;;;2.20;0.90;;;;;;;14.02;100.00;99804.45;104972;1257;71804;-47
2023/05/25 00:28:46;;;;;;;2.70;0.90;;;;;;;14.03;100.00;99804.58;104962;1257;68160;-50
2023/05/25 00:31:13;;;;;;;2.70;0.90;;;;;;;14.04;100.00;99807.15;105186;1260;71563;-46
2023/05/25 00:33:42;;;;;;;2.50;0.90;;;;;;;14.05;100.00;99807.10;108749;1256;61961;-48
2023/05/25 00:36:10;;;;;;;1.20;1.00;;;;;;;14.06;100.00;99811.94;108758;1257;58480;-49
2023/05/25 00:38:37;;;;;;;1.10;1.00;;;;;;;14.05;100.00;99812.72;108757;1257;73017;-48
2023/05/25 00:41:05;;;;;;;1.10;0.80;;;;;;;14.04;100.00;99812.94;105427;1258;66414;-48
2023/05/25 00:43:32;;;;;;;1.00;0.90;;;;;;;14.03;100.00;99811.06;104963;1257;72432;-48
2023/05/25 00:46:00;;;;;;;0.90;0.80;;;;;;;14.01;100.00;99811.34;105010;1264;62237;-46
2023/05/25 00:48:27;;;;;;;1.70;0.80;;;;;;;13.96;100.00;99811.80;108728;1257;58512;-49
2023/05/25 00:50:58;;;;;;;3.50;1.20;;;;;;;13.90;100.00;99812.57;108763;1257;72519;-49
2023/05/25 00:53:26;;;;;;;1.10;0.90;;;;;;;13.82;100.00;99813.75;108834;1257;67098;-49
2023/05/25 00:56:00;;;;;;;2.50;0.80;;;;;;;13.72;100.00;99807.71;108752;1257;71997;-49
2023/05/25 00:58:30;;;;;;;1.80;0.90;;;;;;;13.62;100.00;99808.83;108803;1257;61648;-49
2023/05/25 01:00:57;;;;;;;2.10;0.80;;;;;;;13.59;100.00;99807.06;108738;1261;58799;-49
2023/05/25 01:03:26;;;;;;;0.70;0.60;;;;;;;13.58;100.00;99810.55;108659;1257;74246;-48
2023/05/25 01:05:54;;;;;;;3.70;1.00;;;;;;;13.57;100.00;99811.34;108800;1257;67604;-48
2023/05/25 01:08:22;;;;;;;4.10;0.90;;;;;;;13.54;100.00;99811.30;108756;1262;71264;-48
2023/05/25 01:10:51;;;;;;;5.80;0.90;;;;;;;13.52;100.00;99813.25;108851;1257;61559;-49
2023/05/25 01:13:19;;;;;;;2.50;0.80;;;;;;;13.49;100.00;99810.52;105165;1257;60540;-48
2023/05/25 01:15:47;;;;;;;2.60;0.80;;;;;;;13.49;100.00;99807.11;106506;1264;73132;-48
2023/05/25 01:18:14;;;;;;;1.70;0.90;;;;;;;13.50;100.00;99810.47;105034;1258;68242;-48
2023/05/25 01:20:55;;;;;;;1.00;0.90;;;;;;;13.49;100.00;99811.63;105020;1266;70333;-48
2023/05/25 01:23:27;;;;;;;2.50;0.80;;;;;;;13.45;100.00;99815.27;105401;1259;60536;-48
2023/05/25 01:25:56;;;;;;;1.50;1.00;;;;;;;13.43;100.00;99811.65;108728;1257;60781;-48
2023/05/25 01:28:25;;;;;;;4.20;1.00;;;;;;;13.40;100.00;99807.10;105732;1260;73661;-47
2023/05/25 01:30:52;;;;;;;3.70;1.10;;;;;;;13.37;100.00;99805.29;104949;1264;67398;-47
2023/05/25 01:33:20;;;;;;;2.30;0.90;;;;;;;13.36;100.00;99804.61;104935;1257;71696;-48
2023/05/25 01:35:48;;;;;;;1.40;1.30;;;;;;;13.35;100.00;99805.99;105109;1262;60543;-47
2023/05/25 01:38:16;;;;;;;2.10;1.30;;;;;;;13.34;100.00;99806.77;105162;1258;60594;-48
2023/05/25 01:40:44;;;;;;;1.00;0.80;;;;;;;13.32;100.00;99805.58;105050;1257;72598;-48
2023/05/25 01:43:11;;;;;;;1.60;0.90;;;;;;;13.33;100.00;99808.95;105050;1263;67476;-45
2023/05/25 01:45:38;;;;;;;1.00;0.90;;;;;;;13.34;100.00;99807.09;105040;1260;70942;-44
2023/05/25 01:48:10;;;;;;;1.70;1.00;;;;;;;13.34;100.00;99807.99;105648;1257;60550;-46
2023/05/25 01:50:52;;;;;;;4.00;1.30;;;;;;;13.32;100.00;99811.90;105473;1257;60580;-46
2023/05/25 01:53:25;;;;;;;1.80;0.90;;;;;;;13.31;100.00;99812.86;104953;1257;73211;-48
2023/05/25 01:56:04;;;;;;;1.70;1.00;;;;;;;13.32;100.00;99818.58;105898;1266;66336;-46
2023/05/25 01:58:35;;;;;;;1.20;1.00;;;;;;;13.33;100.00;99821.61;105282;1263;71366;-49
2023/05/25 02:01:02;;;;;;;1.40;0.90;;;;;;;13.34;100.00;99822.83;105443;1263;60922;-49
2023/05/25 02:03:30;;;;;;;1.30;1.10;;;;;;;13.32;100.00;99828.13;105106;1260;60408;-49
2023/05/25 02:05:57;;;;;;;1.70;1.00;;;;;;;13.26;100.00;99831.52;104946;1257;72237;-48
2023/05/25 02:08:25;;;;;;;1.40;0.90;;;;;;;13.24;100.00;99833.65;104932;1265;68635;-48
2023/05/25 02:10:52;;;;;;;1.30;1.00;;;;;;;13.23;100.00;99831.69;104918;1257;71965;-50
2023/05/25 02:13:20;;;;;;;2.60;1.40;;;;;;;13.24;100.00;99834.52;105088;1257;61300;-48
2023/05/25 02:15:47;;;;;;;1.70;1.20;;;;;;;13.25;100.00;99835.90;105050;1263;60415;-48
2023/05/25 02:18:16;;;;;;;1.10;1.00;;;;;;;13.26;100.00;99834.40;105077;1259;73128;-48
2023/05/25 02:20:44;;;;;;;3.30;1.20;;;;;;;13.28;100.00;99831.95;105062;1258;67665;-48
2023/05/25 02:23:12;;;;;;;1.80;1.10;;;;;;;13.29;100.00;99830.25;105398;1265;72738;-48
2023/05/25 02:25:41;;;;;;;1.30;1.20;;;;;;;13.28;100.00;99832.13;105030;1262;60803;-49
2023/05/25 02:28:09;;;;;;;1.90;1.40;;;;;;;13.25;100.00;99834.85;105371;1257;60781;-52
2023/05/25 02:30:37;;;;;;;4.10;1.70;;;;;;;13.24;100.00;99835.61;104867;1264;72327;-49
2023/05/25 02:33:05;;;;;;;3.10;1.90;;;;;;;13.25;100.00;99838.25;104973;1260;67383;-50
2023/05/25 02:35:34;;;;;;;2.70;1.60;;;;;;;13.28;100.00;99837.02;104929;1260;71919;-49
2023/05/25 02:38:01;;;;;;;1.30;1.20;;;;;;;13.29;100.00;99836.58;104904;1263;60520;-49
2023/05/25 02:40:28;;;;;;;4.60;1.80;;;;;;;13.27;100.00;99839.38;104848;1257;60447;-49
2023/05/25 02:42:56;;;;;;;3.50;1.40;;;;;;;13.23;100.00;99840.32;104892;1263;75998;-49
2023/05/25 02:45:23;;;;;;;2.00;1.10;;;;;;;13.23;100.00;99845.04;104858;1264;66267;-49
2023/05/25 02:47:50;;;;;;;1.70;1.50;;;;;;;13.23;100.00;99855.48;104901;1260;72610;-49
2023/05/25 02:50:18;;;;;;;2.70;1.10;;;;;;;13.21;100.00;99851.98;104879;1257;61792;-49
2023/05/25 02:52:49;;;;;;;2.50;1.20;;;;;;;13.20;100.00;99859.27;105084;1258;60467;-50
2023/05/25 02:55:17;;;;;;;2.40;1.20;;;;;;;13.20;100.00;99861.81;104965;1263;74315;-49
2023/05/25 02:57:45;;;;;;;1.90;1.10;;;;;;;13.19;100.00;99862.54;105309;1257;67443;-50
2023/05/25 03:00:21;;;;;;;2.30;1.50;;;;;;;13.19;100.00;99862.02;104701;1257;73180;-50
2023/05/25 03:02:49;;;;;;;1.20;1.00;;;;;;;13.20;100.00;99865.39;104852;1265;61836;-50
2023/05/25 03:05:17;;;;;;;1.60;1.20;;;;;;;13.20;100.00;99861.78;104856;1263;60529;-49
2023/05/25 03:07:44;;;;;;;2.40;1.20;;;;;;;13.22;100.00;99861.85;104817;1265;73522;-49
2023/05/25 03:10:12;;;;;;;3.80;1.10;;;;;;;13.22;100.00;99862.04;106200;1263;67474;-47
2023/05/25 03:12:39;;;;;;;3.50;1.10;;;;;;;13.22;100.00;99859.89;105112;1262;71336;-46
2023/05/25 03:15:08;;;;;;;1.60;1.30;;;;;;;13.22;100.00;99858.41;105146;1258;60425;-47
2023/05/25 03:17:35;;;;;;;5.40;1.10;;;;;;;13.22;100.00;99863.27;105444;1257;62214;-47
2023/05/25 03:20:03;;;;;;;1.00;0.80;;;;;;;13.20;100.00;99861.42;105203;1265;72000;-47
2023/05/25 03:22:31;;;;;;;2.60;1.00;;;;;;;13.21;100.00;99865.16;105290;1265;66782;-47
2023/05/25 03:24:59;;;;;;;1.20;1.10;;;;;;;13.26;100.00;99866.33;107312;1262;72640;-48
2023/05/25 03:27:27;;;;;;;1.00;0.90;;;;;;;13.32;100.00;99868.11;105054;1264;61594;-49
2023/05/25 03:29:54;;;;;;;1.80;1.10;;;;;;;13.38;100.00;99869.40;105093;1258;60478;-48
2023/05/25 03:32:22;;;;;;;2.50;0.90;;;;;;;13.43;100.00;99869.67;105115;1260;72101;-49
2023/05/25 03:34:50;;;;;;;1.50;1.30;;;;;;;13.44;100.00;99866.01;105240;1262;67459;-48
2023/05/25 03:37:18;;;;;;;1.80;1.20;;;;;;;13.45;100.00;99873.84;107554;1262;72771;-48
2023/05/25 03:39:45;;;;;;;3.70;1.20;;;;;;;13.50;100.00;99873.05;108694;1260;60413;-49
2023/05/25 03:42:13;;;;;;;1.50;1.40;;;;;;;13.55;100.00;99870.19;108814;1257;58835;-48
2023/05/25 03:44:40;;;;;;;6.30;1.50;;;;;;;13.62;100.00;99867.63;108803;1257;73513;-47
2023/05/25 03:47:08;;;;;;;1.50;1.00;;;;;;;13.68;100.00;99862.21;108767;1258;66286;-47
2023/05/25 03:49:35;;;;;;;4.40;1.10;;;;;;;13.75;100.00;99861.97;108783;1257;74041;-47
2023/05/25 03:52:04;;;;;;;2.10;1.00;;;;;;;13.82;100.00;99865.00;108792;1257;61570;-47
2023/05/25 03:54:32;;;;;;;4.50;1.30;;;;;;;13.88;100.00;99859.58;108678;1257;59748;-48
2023/05/25 03:57:02;;;;;;;4.50;1.20;;;;;;;13.93;100.00;99863.05;108735;1257;73675;-48
2023/05/25 03:59:30;;;;;;;3.60;1.30;;;;;;;13.98;100.00;99861.67;108587;1263;68835;-48
2023/05/25 04:01:57;;;;;;;1.50;1.40;;;;;;;14.03;100.00;99863.54;108647;1257;71750;-48
2023/05/25 04:04:26;;;;;;;4.90;1.80;;;;;;;14.09;100.00;99864.41;108594;1257;61097;-48
2023/05/25 04:06:54;;;;;;;4.60;1.60;;;;;;;14.18;100.00;99869.66;108654;1257;60078;-48
2023/05/25 04:09:22;;;;;;;1.30;1.20;;;;;;;14.25;100.00;99872.84;108638;1257;73643;-48
2023/05/25 04:11:49;;;;;;;2.30;1.50;;;;;;;14.32;100.00;99874.37;108640;1257;66926;-48
2023/05/25 04:14:19;;;;;;;2.10;1.60;;;;;;;14.42;100.00;99874.72;108705;1257;71199;-47
2023/05/25 04:16:47;;;;;;;2.20;1.40;;;;;;;14.54;100.00;99877.03;105199;1265;61582;-48
2023/05/25 04:19:15;;;;;;;4.80;1.70;;;;;;;14.67;100.00;99881.45;104851;1260;62683;-48
2023/05/25 04:21:42;;;;;;;2.50;1.80;;;;;;;14.82;100.00;99885.73;104735;1260;72570;-47
2023/05/25 04:24:10;;;;;;;4.80;2.50;;;;;;;14.98;100.00;99887.60;104909;1263;65643;-46
2023/05/25 04:26:39;;;;;;;3.70;2.60;;;;;;;15.14;100.00;99885.77;105347;1262;73241;-46
2023/05/25 04:29:08;;;;;;;5.10;2.80;;;;;;;15.31;100.00;99896.83;105159;1260;60626;-46
2023/05/25 04:31:46;;;;;;;4.30;2.50;;;;;;;15.50;100.00;99897.74;105172;1263;60427;-48
2023/05/25 04:34:28;;;;;;;4.00;2.30;;;;;;;15.68;100.00;99896.73;105129;1258;73750;-47
2023/05/25 04:37:18;;;;;;;4.60;2.40;;;;;;;15.88;100.00;99898.27;104677;1263;68316;-48
2023/05/25 04:39:46;;;;;;;3.90;2.00;;;;;;;16.05;100.00;99900.16;104739;1263;72679;-47
2023/05/25 04:42:13;;;;;;;3.60;2.10;;;;;;;16.24;100.00;99902.82;104947;1257;62563;-48
2023/05/25 04:44:42;;;;;;;5.50;2.20;;;;;;;16.46;100.00;99908.88;105093;1257;60493;-48
2023/05/25 04:47:11;;;;;;;5.00;2.80;;;;;;;16.67;100.00;99910.71;105224;1264;73726;-47
2023/05/25 04:49:38;;;;;;;5.10;1.60;;;;;;;16.85;100.00;99916.29;104785;1264;66406;-47
2023/05/25 04:52:07;;;;;;;3.80;2.30;;;;;;;17.02;100.00;99915.66;104817;1262;74169;-47
2023/05/25 04:54:35;;;;;;;5.60;3.00;;;;;;;17.16;100.00;99917.85;106011;1262;60450;-45
2023/05/25 04:57:03;;;;;;;4.90;2.50;;;;;;;17.30;100.00;99917.72;104823;1263;60459;-47
2023/05/25 04:59:31;;;;;;;3.10;1.80;;;;;;;17.44;100.00;99922.30;104762;1262;73144;-48
2023/05/25 05:01:59;;;;;;;3.30;2.00;;;;;;;17.57;100.00;99923.54;105465;1262;68265;-47
2023/05/25 05:04:26;;;;;;;5.80;2.00;;;;;;;17.70;100.00;99924.42;104519;1264;72470;-50
2023/05/25 05:06:54;;;;;;;5.00;1.80;;;;;;;17.82;100.00;99928.76;105204;1257;61602;-46
2023/05/25 05:09:25;;;;;;;3.90;1.50;;;;;;;17.93;100.00;99923.90;105267;1262;60505;-47
2023/05/25 05:11:55;;;;;;;4.30;1.20;;;;;;;18.05;100.00;99934.25;105087;1264;74279;-49
2023/05/25 05:14:22;;;;;;;3.20;1.30;;;;;;;18.17;100.00;99934.04;105017;1261;68272;-48
2023/05/25 05:16:50;;;;;;;5.20;1.20;;;;;;;18.30;100.00;99934.71;105121;1263;71824;-49
2023/05/25 05:19:17;;;;;;;3.30;1.10;;;;;;;18.45;100.00;99940.46;105228;1262;60930;-47
2023/05/25 05:21:45;;;;;;;1.60;1.00;;;;;;;18.58;100.00;99942.48;105429;1254;61423;-48
2023/05/25 05:24:14;;;;;;;4.20;1.50;;;;;;;18.72;100.00;99944.85;105475;1254;74420;-49
2023/05/25 05:26:42;;;;;;;4.30;1.40;;;;;;;18.84;100.00;99948.82;105708;1258;67417;-48
2023/05/25 05:29:27;;;;;;;2.60;1.40;;;;;;;18.98;100.00;99952.12;106039;1260;72505;-48
2023/05/25 05:31:55;;;;;;;1.80;1.20;;;;;;;19.08;100.00;99955.99;106721;1259;60394;-49
2023/05/25 05:34:23;;;;;;;3.20;0.90;;;;;;;19.18;100.00;99963.33;106103;1260;60580;-49
2023/05/25 05:36:50;;;;;;;2.10;1.00;;;;;;;19.28;100.00;99970.14;105128;1263;74456;-47
2023/05/25 05:39:26;;;;;;;2.30;0.80;;;;;;;19.39;100.00;99973.27;105089;1263;67025;-48
2023/05/25 05:41:54;;;;;;;2.40;1.00;;;;;;;19.48;100.00;99973.34;105506;1260;71213;-49
2023/05/25 05:44:22;;;;;;;4.60;0.90;;;;;;;19.56;100.00;99975.39;105189;1263;60581;-49
2023/05/25 05:47:00;;;;;;;1.70;0.90;;;;;;;19.65;100.00;99976.68;104859;1257;60524;-50
2023/05/25 05:49:29;;;;;;;1.10;1.00;;;;;;;19.72;100.00;99978.62;104880;1261;73777;-48
2023/05/25 05:51:57;;;;;;;2.80;0.80;;;;;;;19.80;100.00;99984.34;104842;1260;64840;-49
2023/05/25 05:54:26;;;;;;;3.90;1.10;;;;;;;19.88;100.00;99990.02;105419;1262;70986;-47
2023/05/25 05:56:55;;;;;;;1.70;0.80;;;;;;;19.98;100.00;99993.04;105876;1259;60597;-49
2023/05/25 05:59:23;;;;;;;1.20;0.70;;;;;;;20.06;100.00;99999.98;104576;1259;61808;-50
2023/05/25 06:01:50;;;;;;;1.00;0.60;;;;;;;20.14;100.00;100001.55;104825;1262;75217;-49
2023/05/25 06:04:18;;;;;;;2.80;0.70;;;;;;;20.22;100.00;100003.54;105156;1261;67049;-48
2023/05/25 06:06:45;;;;;;;2.30;0.70;;;;;;;20.30;100.00;100002.35;105105;1263;73176;-48
2023/05/25 06:09:13;;;;;;;3.50;0.70;;;;;;;20.38;100.00;100006.39;104922;1260;61447;-48
2023/05/25 06:11:40;;;;;;;3.40;0.60;;;;;;;20.47;100.00;100005.64;104936;1262;61000;-50
2023/05/25 06:14:08;;;;;;;1.10;0.60;;;;;;;20.57;100.00;100007.91;104930;1263;74325;-51
2023/05/25 06:16:36;;;;;;;0.80;0.60;;;;;;;20.67;100.00;100010.85;104849;1261;67047;-51
2023/05/25 06:19:03;;;;;;;1.80;0.80;;;;;;;20.77;100.00;100013.63;104557;1261;73544;-49
2023/05/25 06:21:31;;;;;;;4.00;0.70;;;;;;;20.86;100.00;100016.54;104845;1261;61044;-49
2023/05/25 06:23:58;;;;;;;4.20;0.80;;;;;;;20.95;100.00;100023.18;105114;1260;60983;-49
2023/05/25 06:26:26;;;;;;;1.90;0.70;;;;;;;21.04;100.00;100027.54;104838;1257;75678;-51
2023/05/25 06:28:56;;;;;;;3.00;0.70;;;;;;;21.10;100.00;100027.67;105107;1260;68890;-50
2023/05/25 06:31:24;;;;;;;1.90;0.80;;;;;;;21.17;100.00;100028.39;105991;1257;72574;-49
2023/05/25 06:33:51;;;;;;;1.60;0.60;;;;;;;21.25;100.00;100032.63;105551;1262;62183;-49
2023/05/25 06:36:19;;;;;;;4.70;0.70;;;;;;;21.33;100.00;100030.33;105244;1260;61800;-49
2023/05/25 06:38:46;;;;;;;2.50;0.60;;;;;;;21.39;100.00;100033.58;105239;1254;73759;-49
2023/05/25 06:41:14;;;;;;;1.20;1.00;;;;;;;21.46;100.00;100036.98;105065;1261;68029;-50
2023/05/25 06:43:42;;;;;;;4.80;1.30;;;;;;;21.54;100.00;100041.33;108899;1257;73030;-49
2023/05/25 06:46:24;;;;;;;2.50;0.70;;;;;;;21.63;100.00;100043.07;108845;1260;60744;-49
2023/05/25 06:48:52;;;;;;;3.50;0.70;;;;;;;21.70;100.00;100041.30;108862;1254;59152;-49
2023/05/25 06:51:20;;;;;;;3.00;0.80;;;;;;;21.77;100.00;100042.58;108857;1254;75492;-48
2023/05/25 06:53:47;;;;;;;5.40;0.80;;;;;;;21.81;100.00;100044.33;108882;1260;67532;-49
2023/05/25 06:56:14;;;;;;;1.50;0.80;;;;;;;21.86;100.00;100045.38;105569;1254;72825;-49
2023/05/25 06:58:42;;;;;;;1.50;0.80;;;;;;;21.93;100.00;100051.20;105099;1259;60389;-48
2023/05/25 07:01:09;;;;;;;3.60;0.80;;;;;;;21.99;100.00;100052.84;105141;1255;60301;-47
2023/05/25 07:03:37;;;;;;;2.50;1.40;;;;;;;22.05;100.00;100057.23;105324;1261;73954;-49
2023/05/25 07:06:05;;;;;;;2.50;0.80;;;;;;;22.10;100.00;100056.55;108923;1259;66241;-50
2023/05/25 07:08:32;;;;;;;1.20;1.00;;;;;;;22.15;100.00;100062.30;108587;1261;72626;-49
2023/05/25 07:11:00;;;;;;;3.00;1.10;;;;;;;22.20;100.00;100056.92;105295;1257;60565;-48
2023/05/25 07:13:27;;;;;;;1.40;0.80;;;;;;;22.26;100.00;100059.66;105354;1259;60986;-47
2023/05/25 07:15:55;;;;;;;2.60;0.90;;;;;;;22.32;100.00;100060.39;105312;1255;72536;-47
2023/05/25 07:18:22;;;;;;;2.10;0.80;;;;;;;22.40;100.00;100061.46;105303;1255;68563;-49
2023/05/25 07:20:50;;;;;;;12.30;3.10;;;;;;;22.48;100.00;100066.21;105072;1260;71591;-51
2023/05/25 07:23:17;;;;;;;2.40;0.80;;;;;;;22.57;100.00;100070.50;104415;1260;61324;-48
2023/05/25 07:25:45;;;;;;;2.40;0.80;;;;;;;22.65;100.00;100072.33;104836;1261;62928;-49
2023/05/25 07:28:12;;;;;;;1.50;0.80;;;;;;;22.72;100.00;100072.19;105163;1255;72866;-49
2023/05/25 07:30:40;;;;;;;4.30;0.90;;;;;;;22.80;100.00;100075.45;104903;1263;67565;-50
2023/05/25 07:33:07;;;;;;;3.40;0.80;;;;;;;22.87;100.00;100081.79;104786;1261;73804;-51
2023/05/25 07:35:35;;;;;;;3.40;0.80;;;;;;;22.92;100.00;100080.02;105107;1258;61761;-51
2023/05/25 07:38:05;;;;;;;3.60;0.80;;;;;;;22.98;100.00;100083.48;105235;1260;60367;-51
2023/05/25 07:40:33;;;;;;;3.90;0.80;;;;;;;23.03;100.00;100083.33;105249;1258;73716;-50
2023/05/25 07:43:00;;;;;;;4.00;0.90;;;;;;;23.08;100.00;100083.08;105289;1261;65157;-50
2023/05/25 07:45:28;;;;;;;3.90;1.00;;;;;;;23.13;100.00;100081.67;105367;1261;73076;-50
2023/05/25 07:47:56;;;;;;;3.60;1.00;;;;;;;23.18;100.00;100078.48;105390;1260;60499;-50
2023/05/25 07:50:23;;;;;;;2.30;0.80;;;;;;;23.21;100.00;100076.89;105303;1257;60341;-49
2023/05/25 07:52:51;;;;;;;2.80;0.80;;;;;;;23.27;100.00;100076.08;105342;1258;73208;-52
2023/05/25 07:55:19;;;;;;;2.00;0.70;;;;;;;23.35;100.00;100076.42;105140;1258;65903;-50
2023/05/25 07:57:46;;;;;;;5.40;0.80;;;;;;;23.43;100.00;100079.33;105284;1257;73026;-51
2023/05/25 08:00:14;;;;;;;1.50;0.80;;;;;;;23.51;100.00;100081.19;105228;1261;60534;-51
2023/05/25 08:02:42;;;;;;;0.80;0.60;;;;;;;23.58;100.00;100079.73;105566;1262;60521;-50
2023/05/25 08:05:11;;;;;;;3.30;0.70;;;;;;;23.65;100.00;100081.73;105039;1264;76143;-49
2023/05/25 08:07:39;;;;;;;2.90;0.60;;;;;;;23.72;100.00;100080.04;105194;1263;66374;-50
2023/05/25 08:10:09;;;;;;;1.30;0.70;;;;;;;23.80;100.00;100076.64;105646;1259;72682;-51
2023/05/25 08:12:36;;;;;;;3.00;0.90;;;;;;;23.91;100.00;100077.59;105151;1257;60905;-48
2023/05/25 08:15:15;;;;;;;2.80;0.70;;;;;;;24.04;100.00;100074.61;104889;1254;60822;-49
2023/05/25 08:17:42;;;;;;;5.10;0.70;;;;;;;24.17;100.00;100073.91;105227;1260;72573;-48
2023/05/25 08:20:11;;;;;;;3.20;0.80;;;;;;;24.28;100.00;100073.16;105593;1258;66491;-49
2023/05/25 08:22:38;;;;;;;1.00;0.80;;;;;;;24.39;100.00;100077.92;105308;1260;72655;-48
2023/05/25 08:25:06;;;;;;;3.50;0.90;;;;;;;24.44;100.00;100077.71;105105;1261;60355;-50
2023/05/25 08:27:34;;;;;;;2.00;0.70;;;;;;;24.46;100.00;100078.80;105308;1261;60438;-48
2023/05/25 08:30:04;;;;;;;2.80;0.80;;;;;;;24.51;100.00;100077.61;105568;1256;73983;-50
2023/05/25 08:32:32;;;;;;;5.70;1.40;;;;;;;24.58;100.00;100083.48;105671;1258;67064;-51
2023/05/25 08:35:00;;;;;;;3.40;0.70;;;;;;;24.63;100.00;100081.04;105383;1261;73164;-50
2023/05/25 08:37:29;;;;;;;2.80;0.70;;;;;;;24.61;100.00;100085.08;106196;1254;60655;-51
2023/05/25 08:39:59;;;;;;;2.50;0.60;;;;;;;24.57;100.00;100082.91;105263;1261;60482;-51
2023/05/25 08:42:27;;;;;;;4.00;0.70;;;;;;;24.54;100.00;100087.41;105427;1260;74067;-50
2023/05/25 08:44:55;;;;;;;1.20;0.90;;;;;;;24.48;100.00;100085.91;105344;1254;67472;-51
2023/05/25 08:47:23;;;;;;;1.90;0.80;;;;;;;24.42;100.00;100088.96;105569;1254;73527;-51
2023/05/25 08:49:51;;;;;;;1.90;0.70;;;;;;;24.33;100.00;100093.33;105030;1254;339439;-50
2023/05/25 08:53:48;;;;;;;3.30;0.90;;;;;;;24.18;100.00;100081.84;102288;1294;603485;-49
2023/05/25 08:56:19;;;;;;;1.60;1.10;;;;;;;24.05;100.00;100083.70;104622;1266;59249;-52
2023/05/25 08:58:55;;;;;;;0.70;0.60;;;;;;;23.96;100.00;100079.45;104539;1267;59524;-49
2023/05/25 09:01:22;;;;;;;1.50;0.80;;;;;;;23.90;100.00;100075.86;104473;1267;70788;-50
2023/05/25 09:03:50;;;;;;;2.50;0.60;;;;;;;23.86;100.00;100074.23;104301;1274;65034;-51
2023/05/25 09:06:17;;;;;;;2.70;0.70;;;;;;;23.83;100.00;100069.71;104196;1268;198105;-49
2023/05/25 09:08:45;;;;;;;0.90;0.60;;;;;;;23.79;100.00;100069.45;104775;1266;59708;-50
2023/05/25 09:11:12;;;;;;;0.60;0.60;;;;;;;23.74;100.00;100068.05;104732;1268;59348;-49
2023/05/25 09:13:45;;;;;;;2.80;0.60;;;;;;;23.71;100.00;100064.84;105093;1265;71394;-48
2023/05/25 09:16:13;;;;;;;1.00;0.80;;;;;;;23.71;100.00;100061.44;104529;1266;67505;-49
2023/05/25 09:18:41;;;;;;;2.10;0.70;;;;;;;23.74;100.00;100059.29;104595;1266;71678;-50
2023/05/25 09:21:08;;;;;;;1.20;0.70;;;;;;;23.77;100.00;100062.29;104673;1266;62175;-50
2023/05/25 09:23:36;;;;;;;1.50;0.80;;;;;;;23.79;100.00;100061.02;104600;1266;61441;-49
2023/05/25 09:26:03;;;;;;;3.10;0.50;;;;;;;23.80;100.00;100059.85;104386;1265;73647;-50
2023/05/25 09:28:31;;;;;;;2.70;0.60;;;;;;;23.78;100.00;100058.92;104477;1266;67068;-48
2023/05/25 09:30:58;;;;;;;3.10;0.60;;;;;;;23.76;100.00;100056.15;104738;1268;72045;-50
2023/05/25 09:33:25;;;;;;;0.70;0.50;;;;;;;23.73;100.00;100050.72;104605;1268;59820;-51
2023/05/25 09:35:53;;;;;;;4.80;0.70;;;;;;;23.71;100.00;100048.23;104609;1266;60476;-51
2023/05/25 09:38:20;;;;;;;4.50;0.60;;;;;;;23.68;100.00;100044.81;104569;1267;73250;-51
2023/05/25 09:40:48;;;;;;;9.70;2.50;;;;;;;23.67;100.00;100039.09;104796;1268;68019;-50
2023/05/25 09:43:15;;;;;;;0.50;0.50;;;;;;;23.64;100.00;100030.81;104552;1268;71637;-50
2023/05/25 09:46:03;;;;;;;1.40;0.70;;;;;;;23.62;100.00;100025.11;104572;1268;60307;-50
2023/05/25 09:48:31;;;;;;;0.90;0.70;;;;;;;23.61;100.00;100019.39;108280;1264;59905;-49
2023/05/25 09:50:58;;;;;;;0.80;0.60;;;;;;;23.60;100.00;100009.38;108329;1265;72353;-49
2023/05/25 09:53:26;;;;;;;1.30;0.60;;;;;;;23.60;100.00;100010.63;108291;1265;69133;-50
2023/05/25 09:55:53;;;;;;;0.60;0.50;;;;;;;23.61;100.00;100010.71;108049;1265;72186;-50
2023/05/25 09:58:22;;;;;;;3.10;0.60;;;;;;;23.61;100.00;100007.41;108299;1264;58277;-50
2023/05/25 10:00:54;;;;;;;0.90;0.60;;;;;;;23.62;100.00;100006.05;108343;1264;61163;-50
2023/05/25 10:03:21;;;;;;;4.70;0.60;;;;;;;23.65;100.00;99997.39;108331;1265;73093;-50
2023/05/25 10:05:49;;;;;;;3.20;0.60;;;;;;;23.68;100.00;99997.92;108253;1265;67671;-51
2023/05/25 10:08:17;;;;;;;0.60;0.50;;;;;;;23.72;100.00;99988.02;108136;1266;72758;-50
2023/05/25 10:10:45;;;;;;;2.80;0.60;;;;;;;23.77;100.00;99983.47;108099;1266;60452;-50
2023/05/25 10:13:12;;;;;;;2.60;0.60;;;;;;;23.84;100.00;99980.42;108263;1264;60179;-50
2023/05/25 10:15:40;;;;;;;3.10;0.50;;;;;;;23.90;100.00;99978.34;108293;1265;72862;-51
2023/05/25 10:18:08;;;;;;;1.30;0.60;;;;;;;23.97;100.00;99974.88;108061;1264;68824;-49
2023/05/25 10:20:36;;;;;;;1.60;0.70;;;;;;;24.05;100.00;99970.41;108054;1264;73547;-50
2023/05/25 10:23:08;;;;;;;0.60;0.60;;;;;;;24.16;100.00;99968.02;108200;1264;59422;-51
2023/05/25 10:25:40;;;;;;;1.00;0.50;;;;;;;24.28;100.00;99962.44;108052;1265;59029;-50
2023/05/25 10:28:27;;;;;;;0.70;0.60;;;;;;;24.40;100.00;99964.69;108233;1266;72516;-51
2023/05/25 10:30:55;;;;;;;2.40;0.50;;;;;;;24.51;100.00;99961.46;104499;1265;69557;-49
2023/05/25 10:33:23;;;;;;;0.90;0.60;;;;;;;24.60;100.00;99958.23;104301;1266;71744;-51
2023/05/25 10:35:51;;;;;;;1.60;0.60;;;;;;;24.67;100.00;99964.08;104342;1266;60212;-52
2023/05/25 10:38:36;;;;;;;1.90;0.60;;;;;;;24.77;100.00;99967.77;104261;1266;61429;-50
2023/05/25 10:41:03;;;;;;;1.00;0.60;;;;;;;24.84;100.00;99965.02;104128;1268;73703;-51
2023/05/25 10:43:31;;;;;;;0.60;0.60;;;;;;;24.87;100.00;99964.48;104944;1258;67214;-48
2023/05/25 10:45:58;;;;;;;1.00;0.60;;;;;;;24.89;100.00;99962.30;105165;1256;73094;-48
2023/05/25 10:48:35;;;;;;;1.90;0.50;;;;;;;24.92;100.00;99964.38;105388;1258;62751;-50
2023/05/25 10:51:03;;;;;;;0.80;0.70;;;;;;;24.97;100.00;99960.40;108336;1256;59333;-51
2023/05/25 10:53:30;;;;;;;0.90;0.60;;;;;;;25.03;100.00;99959.89;105678;1259;73958;-48
2023/05/25 10:56:05;;;;;;;1.00;0.50;;;;;;;25.08;100.00;99957.57;105384;1256;67575;-51
2023/05/25 10:58:33;;;;;;;3.30;0.60;;;;;;;25.13;100.00;99955.31;106653;1254;72517;-51
2023/05/25 11:01:02;;;;;;;0.80;0.60;;;;;;;25.20;100.00;99964.17;105420;1254;59733;-49
2023/05/25 11:03:51;;;;;;;0.70;0.50;;;;;;;25.25;100.00;99958.32;106476;1257;59657;-50
2023/05/25 11:06:20;;;;;;;0.70;0.50;;;;;;;25.33;100.00;99948.52;105378;1254;72200;-50
2023/05/25 11:08:55;;;;;;;3.80;0.70;;;;;;;25.42;100.00;99941.79;106229;1256;68254;-52
2023/05/25 11:11:43;;;;;;;2.00;0.60;;;;;;;25.52;100.00;99929.84;105389;1257;73310;-51
2023/05/25 11:14:22;;;;;;;0.90;0.60;;;;;;;25.64;100.00;99939.67;105327;1258;60409;-48
2023/05/25 11:17:10;;;;;;;1.30;0.60;;;;;;;25.70;100.00;99939.56;105276;1256;60146;-50
2023/05/25 11:19:46;;;;;;;2.20;0.60;;;;;;;25.66;100.00;99947.08;106612;1256;72992;-50
2023/05/25 11:22:36;;;;;;;5.60;0.80;;;;;;;25.58;100.00;99965.05;105375;1256;69062;-47
2023/05/25 11:25:36;;;;;;;3.00;0.50;;;;;;;25.50;100.00;99968.11;105454;1254;73290;-50